createdAt,value
2023-01-29T00:00:46.349Z,86.16
2023-01-29T00:01:47.903Z,85.55
2023-01-29T00:02:49.250Z,85.25
2023-01-29T00:03:51.257Z,85.10
2023-01-29T00:04:52.605Z,85.33
2023-01-29T00:05:53.784Z,85.01
2023-01-29T00:06:54.962Z,85.15
2023-01-29T00:07:56.560Z,84.50
2023-01-29T00:08:57.831Z,84.65
2023-01-29T00:09:59.279Z,84.70
2023-01-29T00:11:01.231Z,84.57
2023-01-29T00:12:02.750Z,85.25
2023-01-29T00:13:04.044Z,85.23
2023-01-29T00:14:05.747Z,85.46
2023-01-29T00:15:07.348Z,85.94
2023-01-29T00:16:09.079Z,85.32
2023-01-29T00:17:10.387Z,85.81
2023-01-29T00:18:11.693Z,86.62
2023-01-29T00:19:12.955Z,86.96
2023-01-29T00:20:14.617Z,86.89
2023-01-29T00:21:18.341Z,87.70
2023-01-29T00:22:19.718Z,87.56
2023-01-29T00:23:21.408Z,86.57
2023-01-29T00:24:22.994Z,87.30
2023-01-29T00:25:24.273Z,87.02
2023-01-29T00:26:25.808Z,86.76
2023-01-29T00:27:27.062Z,86.65
2023-01-29T00:28:28.470Z,86.68
2023-01-29T00:29:30.579Z,86.06
2023-01-29T00:30:31.909Z,85.46
2023-01-29T00:31:33.237Z,85.90
2023-01-29T00:32:34.748Z,86.42
2023-01-29T00:33:36.003Z,86.08
2023-01-29T00:34:37.191Z,86.69
2023-01-29T00:35:39.590Z,86.69
2023-01-29T00:36:40.853Z,86.22
2023-01-29T00:37:42.101Z,87.43
2023-01-29T00:38:43.395Z,87.65
2023-01-29T00:39:48.053Z,87.17
2023-01-29T00:40:49.644Z,86.91
2023-01-29T00:41:50.878Z,86.37
2023-01-29T00:42:52.184Z,86.00
2023-01-29T00:43:53.470Z,87.10
2023-01-29T00:44:54.763Z,87.41
2023-01-29T00:45:55.946Z,87.41
2023-01-29T00:46:57.341Z,87.97
2023-01-29T00:47:58.668Z,87.41
2023-01-29T00:49:00.915Z,87.64
2023-01-29T00:50:03.311Z,87.41
2023-01-29T00:51:04.634Z,87.50
2023-01-29T00:52:05.837Z,86.96
2023-01-29T00:53:07.023Z,87.57
2023-01-29T00:54:08.389Z,86.80
2023-01-29T00:55:10.426Z,86.31
2023-01-29T00:56:12.092Z,85.99
2023-01-29T00:57:13.379Z,86.78
2023-01-29T00:58:14.621Z,86.02
2023-01-29T00:59:15.930Z,85.60
2023-01-29T01:00:18.537Z,85.89
2023-01-29T01:01:21.068Z,86.35
2023-01-29T01:02:22.464Z,86.22
2023-01-29T01:03:23.767Z,86.67
2023-01-29T01:04:26.985Z,86.49
2023-01-29T01:05:28.452Z,86.73
2023-01-29T01:06:29.734Z,86.37
2023-01-29T01:07:30.967Z,86.45
2023-01-29T01:08:32.375Z,85.85
2023-01-29T01:09:37.257Z,85.67
2023-01-29T01:10:38.538Z,86.81
2023-01-29T01:11:39.947Z,86.74
2023-01-29T01:12:41.303Z,87.10
2023-01-29T01:13:42.591Z,86.12
2023-01-29T01:14:43.878Z,86.28
2023-01-29T01:15:45.121Z,86.16
2023-01-29T01:16:47.069Z,86.35
2023-01-29T01:17:51.325Z,85.95
2023-01-29T01:18:52.565Z,85.57
2023-01-29T01:19:53.804Z,85.99
2023-01-29T01:20:56.999Z,86.18
2023-01-29T01:21:58.215Z,85.95
2023-01-29T01:22:59.462Z,86.44
2023-01-29T01:24:00.704Z,86.89
2023-01-29T01:25:02.189Z,86.12
2023-01-29T01:26:08.058Z,86.58
2023-01-29T01:27:09.259Z,86.26
2023-01-29T01:28:10.600Z,86.21
2023-01-29T01:29:12.391Z,86.86
2023-01-29T01:30:15.110Z,86.58
2023-01-29T01:31:16.803Z,86.60
2023-01-29T01:32:18.101Z,86.40
2023-01-29T01:33:19.348Z,85.82
2023-01-29T01:34:20.582Z,85.35
2023-01-29T01:35:21.882Z,85.26
2023-01-29T01:36:23.694Z,85.58
2023-01-29T01:37:24.952Z,85.91
2023-01-29T01:38:26.783Z,86.70
2023-01-29T01:39:29.253Z,86.44
2023-01-29T01:40:30.993Z,86.86
2023-01-29T01:41:32.603Z,86.55
2023-01-29T01:42:33.839Z,86.86
2023-01-29T01:43:54.603Z,86.53
2023-01-29T01:44:57.459Z,86.80
2023-01-29T01:45:58.672Z,87.09
2023-01-29T01:47:01.220Z,86.68
2023-01-29T01:48:07.408Z,87.16
2023-01-29T01:49:14.190Z,86.72
2023-01-29T01:50:18.751Z,86.37
2023-01-29T01:51:21.703Z,86.01
2023-01-29T01:52:23.254Z,85.36
2023-01-29T01:53:33.442Z,86.75
2023-01-29T01:54:34.718Z,87.12
2023-01-29T01:55:41.005Z,87.26
2023-01-29T01:56:45.272Z,86.84
2023-01-29T01:57:47.909Z,87.26
2023-01-29T01:58:51.569Z,86.88
2023-01-29T01:59:55.863Z,87.37
2023-01-29T02:00:57.261Z,86.42
2023-01-29T02:01:58.558Z,86.53
2023-01-29T02:03:01.170Z,86.67
2023-01-29T02:04:05.674Z,87.13
2023-01-29T02:05:07.327Z,86.81
2023-01-29T02:06:09.867Z,86.90
2023-01-29T02:07:13.796Z,84.62
2023-01-29T02:08:16.416Z,85.12
2023-01-29T02:09:20.415Z,85.50
2023-01-29T02:10:22.220Z,85.35
2023-01-29T02:11:23.648Z,84.31
2023-01-29T02:12:25.215Z,84.35
2023-01-29T02:13:26.580Z,85.09
2023-01-29T02:14:27.793Z,84.66
2023-01-29T02:15:28.972Z,85.17
2023-01-29T02:16:30.240Z,86.28
2023-01-29T02:17:31.715Z,85.99
2023-01-29T02:18:33.041Z,86.56
2023-01-29T02:19:57.192Z,86.71
2023-01-29T02:21:05.643Z,85.74
2023-01-29T02:22:25.511Z,85.97
2023-01-29T02:23:38.918Z,86.75
2023-01-29T02:24:58.803Z,86.88
2023-01-29T02:26:23.031Z,86.76
2023-01-29T02:27:29.211Z,85.85
2023-01-29T02:28:30.483Z,86.26
2023-01-29T02:29:48.407Z,85.60
2023-01-29T02:30:52.475Z,85.05
2023-01-29T02:32:00.214Z,85.50
2023-01-29T02:33:01.469Z,85.75
2023-01-29T02:34:08.818Z,85.55
2023-01-29T02:35:14.439Z,86.28
2023-01-29T02:36:27.677Z,86.02
2023-01-29T02:37:39.797Z,86.74
2023-01-29T02:38:42.234Z,86.22
2023-01-29T02:39:53.322Z,86.75
2023-01-29T02:41:01.167Z,87.00
2023-01-29T02:42:02.558Z,85.73
2023-01-29T02:43:25.799Z,86.70
2023-01-29T02:44:46.951Z,86.87
2023-01-29T02:45:53.798Z,87.11
2023-01-29T02:46:55.118Z,86.98
2023-01-29T02:47:58.858Z,87.12
2023-01-29T02:49:10.012Z,86.99
2023-01-29T02:50:29.980Z,87.37
2023-01-29T02:51:38.637Z,86.79
2023-01-29T02:52:39.805Z,86.60
2023-01-29T02:53:46.164Z,86.15
2023-01-29T02:54:47.420Z,85.04
2023-01-29T02:55:52.271Z,85.47
2023-01-29T02:57:01.029Z,86.02
2023-01-29T02:58:07.562Z,86.43
2023-01-29T02:59:12.637Z,86.09
2023-01-29T03:00:14.821Z,86.18
2023-01-29T03:01:22.850Z,86.72
2023-01-29T03:02:28.931Z,86.07
2023-01-29T03:03:38.023Z,86.35
2023-01-29T03:04:42.212Z,86.75
2023-01-29T03:05:46.415Z,86.77
2023-01-29T03:06:54.120Z,86.58
2023-01-29T03:07:58.915Z,85.46
2023-01-29T03:09:13.128Z,86.38
2023-01-29T03:10:27.867Z,86.39
2023-01-29T03:11:35.019Z,85.95
2023-01-29T03:12:38.952Z,85.27
2023-01-29T03:13:42.643Z,84.86
2023-01-29T03:14:46.559Z,85.37
2023-01-29T03:15:49.501Z,86.26
2023-01-29T03:17:06.261Z,85.92
2023-01-29T03:18:26.715Z,85.62
2023-01-29T03:19:38.612Z,85.82
2023-01-29T03:20:51.691Z,86.03
2023-01-29T03:21:56.434Z,85.83
2023-01-29T03:23:00.795Z,86.31
2023-01-29T03:24:03.867Z,86.67
2023-01-29T03:25:07.959Z,87.25
2023-01-29T03:26:11.467Z,87.40
2023-01-29T03:27:15.076Z,86.54
2023-01-29T03:28:21.324Z,85.83
2023-01-29T03:29:25.585Z,86.45
2023-01-29T03:30:30.487Z,86.09
2023-01-29T03:31:41.171Z,86.05
2023-01-29T03:32:43.108Z,86.71
2023-01-29T03:33:52.405Z,85.45
2023-01-29T03:34:57.071Z,85.57
2023-01-29T03:36:06.283Z,85.81
2023-01-29T03:37:11.241Z,85.59
2023-01-29T03:38:12.983Z,86.15
2023-01-29T03:39:15.163Z,86.50
2023-01-29T03:40:18.211Z,86.27
2023-01-29T03:41:22.495Z,86.04
2023-01-29T03:42:27.118Z,85.85
2023-01-29T03:43:28.358Z,86.54
2023-01-29T03:44:35.354Z,86.14
2023-01-29T03:45:54.381Z,85.77
2023-01-29T03:46:58.449Z,86.34
2023-01-29T03:48:02.678Z,86.79
2023-01-29T03:49:21.410Z,86.25
2023-01-29T03:50:28.852Z,86.17
2023-01-29T03:51:34.052Z,86.51
2023-01-29T03:52:38.652Z,86.38
2023-01-29T03:53:46.990Z,86.48
2023-01-29T03:54:54.087Z,85.85
2023-01-29T03:55:59.847Z,85.79
2023-01-29T03:57:07.965Z,85.63
2023-01-29T03:58:12.606Z,85.98
2023-01-29T03:59:20.926Z,85.96
2023-01-29T04:00:48.485Z,86.60
2023-01-29T04:01:51.086Z,86.96
2023-01-29T04:03:10.735Z,86.67
2023-01-29T04:04:16.805Z,87.09
2023-01-29T04:05:24.262Z,86.05
2023-01-29T04:06:40.739Z,86.26
2023-01-29T04:07:44.894Z,87.21
2023-01-29T04:08:53.451Z,86.36
2023-01-29T04:09:57.103Z,86.14
2023-01-29T04:10:59.857Z,86.91
2023-01-29T04:12:07.090Z,86.08
2023-01-29T04:13:12.740Z,87.09
2023-01-29T04:14:16.556Z,85.95
2023-01-29T04:15:19.466Z,86.87
2023-01-29T04:16:26.518Z,87.05
2023-01-29T04:17:41.887Z,87.48
2023-01-29T04:18:48.858Z,86.60
2023-01-29T04:19:51.060Z,86.84
2023-01-29T04:20:53.274Z,86.65
2023-01-29T04:22:01.428Z,87.06
2023-01-29T04:23:06.150Z,86.88
2023-01-29T04:24:07.774Z,86.40
2023-01-29T04:25:13.170Z,85.76
2023-01-29T04:26:17.301Z,84.81
2023-01-29T04:27:18.592Z,85.58
2023-01-29T04:28:25.839Z,85.73
2023-01-29T04:29:29.989Z,85.31
2023-01-29T04:30:46.287Z,85.09
2023-01-29T04:31:54.401Z,84.39
2023-01-29T04:33:14.069Z,84.60
2023-01-29T04:34:23.382Z,84.44
2023-01-29T04:35:43.117Z,85.27
2023-01-29T04:36:58.921Z,85.05
2023-01-29T04:38:21.587Z,85.61
2023-01-29T04:39:26.567Z,85.62
2023-01-29T04:40:52.220Z,85.74
2023-01-29T04:42:02.480Z,86.89
2023-01-29T04:43:08.824Z,86.30
2023-01-29T04:44:18.809Z,86.59
2023-01-29T04:45:40.354Z,86.24
2023-01-29T04:46:47.959Z,85.50
2023-01-29T04:48:01.830Z,84.87
2023-01-29T04:49:05.875Z,85.88
2023-01-29T04:50:22.264Z,86.91
2023-01-29T04:51:23.506Z,86.76
2023-01-29T04:52:33.980Z,87.06
2023-01-29T04:53:40.325Z,87.33
2023-01-29T04:54:44.302Z,87.31
2023-01-29T04:55:49.657Z,86.60
2023-01-29T04:56:54.977Z,86.42
2023-01-29T04:58:07.243Z,85.74
2023-01-29T04:59:12.082Z,85.74
2023-01-29T05:00:17.803Z,85.54
2023-01-29T05:01:19.839Z,85.63
2023-01-29T05:02:22.416Z,84.83
2023-01-29T05:03:25.643Z,85.36
2023-01-29T05:04:27.833Z,85.94
2023-01-29T05:05:30.412Z,85.47
2023-01-29T05:06:32.142Z,86.45
2023-01-29T05:07:35.520Z,86.46
2023-01-29T05:08:37.724Z,86.27
2023-01-29T05:09:39.202Z,86.35
2023-01-29T05:10:40.796Z,86.59
2023-01-29T05:11:42.846Z,86.85
2023-01-29T05:12:47.518Z,86.05
2023-01-29T05:13:48.976Z,85.62
2023-01-29T05:14:51.420Z,86.63
2023-01-29T05:16:08.085Z,86.47
2023-01-29T05:17:14.176Z,86.43
2023-01-29T05:18:15.522Z,87.21
2023-01-29T05:19:17.164Z,87.36
2023-01-29T05:20:18.716Z,87.93
2023-01-29T05:21:20.809Z,86.70
2023-01-29T05:22:22.355Z,87.36
2023-01-29T05:23:23.703Z,87.49
2023-01-29T05:24:26.036Z,87.17
2023-01-29T05:25:28.845Z,86.72
2023-01-29T05:26:30.148Z,86.36
2023-01-29T05:27:34.804Z,86.46
2023-01-29T05:28:36.058Z,87.52
2023-01-29T05:29:37.427Z,86.97
2023-01-29T05:30:39.332Z,86.62
2023-01-29T05:31:43.645Z,87.05
2023-01-29T05:32:44.992Z,87.18
2023-01-29T05:33:46.209Z,85.85
2023-01-29T05:34:47.429Z,85.94
2023-01-29T05:35:48.923Z,86.24
2023-01-29T05:36:50.312Z,86.29
2023-01-29T05:37:51.663Z,85.41
2023-01-29T05:38:52.886Z,85.91
2023-01-29T05:39:54.140Z,85.32
2023-01-29T05:40:58.022Z,85.87
2023-01-29T05:41:59.255Z,86.16
2023-01-29T05:43:00.494Z,86.22
2023-01-29T05:44:01.851Z,86.39
2023-01-29T05:45:03.321Z,86.76
2023-01-29T05:46:04.729Z,86.68
2023-01-29T05:47:05.929Z,86.73
2023-01-29T05:48:07.162Z,86.83
2023-01-29T05:49:08.346Z,86.33
2023-01-29T05:50:09.874Z,86.85
2023-01-29T05:51:11.178Z,86.33
2023-01-29T05:52:12.436Z,86.02
2023-01-29T05:53:13.672Z,86.29
2023-01-29T05:54:15.007Z,85.91
2023-01-29T05:55:16.255Z,85.83
2023-01-29T05:56:17.678Z,85.76
2023-01-29T05:57:18.925Z,85.70
2023-01-29T05:58:20.176Z,86.16
2023-01-29T05:59:21.453Z,86.71
2023-01-29T06:00:22.863Z,86.73
2023-01-29T06:01:25.081Z,86.75
2023-01-29T06:02:28.934Z,85.83
2023-01-29T06:03:30.304Z,85.06
2023-01-29T06:04:31.663Z,85.77
2023-01-29T06:05:32.912Z,85.76
2023-01-29T06:06:34.151Z,86.11
2023-01-29T06:07:35.478Z,86.43
2023-01-29T06:08:36.968Z,85.95
2023-01-29T06:09:38.285Z,86.37
2023-01-29T06:10:39.584Z,86.88
2023-01-29T06:11:41.027Z,86.39
2023-01-29T06:12:42.962Z,86.25
2023-01-29T06:13:44.998Z,87.13
2023-01-29T06:14:46.194Z,87.32
2023-01-29T06:15:53.611Z,86.76
2023-01-29T06:16:54.883Z,86.54
2023-01-29T06:17:56.606Z,85.90
2023-01-29T06:18:57.958Z,85.07
2023-01-29T06:19:59.176Z,85.78
2023-01-29T06:21:01.094Z,85.23
2023-01-29T06:22:02.373Z,86.51
2023-01-29T06:23:03.730Z,85.73
2023-01-29T06:24:05.178Z,85.61
2023-01-29T06:25:06.973Z,85.66
2023-01-29T06:26:12.470Z,86.17
2023-01-29T06:27:13.759Z,86.31
2023-01-29T06:28:15.262Z,86.20
2023-01-29T06:29:16.495Z,86.60
2023-01-29T06:30:18.249Z,86.48
2023-01-29T06:31:36.969Z,87.23
2023-01-29T06:32:38.866Z,86.96
2023-01-29T06:33:40.114Z,87.24
2023-01-29T06:34:41.378Z,86.69
2023-01-29T06:35:42.577Z,87.53
2023-01-29T06:36:43.780Z,87.21
2023-01-29T06:37:45.039Z,87.05
2023-01-29T06:38:46.334Z,87.54
2023-01-29T06:39:47.577Z,87.61
2023-01-29T06:40:48.865Z,87.42
2023-01-29T06:41:50.098Z,86.75
2023-01-29T06:42:51.422Z,87.84
2023-01-29T06:43:52.972Z,87.91
2023-01-29T06:44:55.000Z,87.99
2023-01-29T06:45:57.316Z,87.42
2023-01-29T06:46:58.547Z,88.53
2023-01-29T06:48:01.401Z,87.81
2023-01-29T06:49:03.229Z,87.92
2023-01-29T06:50:04.662Z,88.06
2023-01-29T06:51:06.713Z,87.96
2023-01-29T06:52:07.890Z,87.97
2023-01-29T06:53:09.207Z,87.82
2023-01-29T06:54:10.863Z,87.98
2023-01-29T06:55:12.103Z,88.40
2023-01-29T06:56:13.349Z,88.21
2023-01-29T06:57:14.604Z,88.19
2023-01-29T06:58:15.902Z,88.77
2023-01-29T06:59:17.191Z,88.54
2023-01-29T07:00:18.861Z,89.12
2023-01-29T07:01:34.746Z,88.63
2023-01-29T07:02:36.773Z,88.93
2023-01-29T07:03:38.229Z,88.44
2023-01-29T07:04:39.462Z,88.11
2023-01-29T07:05:40.779Z,88.80
2023-01-29T07:06:42.070Z,88.86
2023-01-29T07:07:43.358Z,87.87
2023-01-29T07:08:44.671Z,87.86
2023-01-29T07:09:45.861Z,87.88
2023-01-29T07:10:47.062Z,88.15
2023-01-29T07:11:48.395Z,86.68
2023-01-29T07:12:49.632Z,86.84
2023-01-29T07:13:50.839Z,87.16
2023-01-29T07:14:52.073Z,87.54
2023-01-29T07:15:53.342Z,87.04
2023-01-29T07:16:54.806Z,86.93
2023-01-29T07:18:02.759Z,86.92
2023-01-29T07:19:04.025Z,86.70
2023-01-29T07:20:06.157Z,87.71
2023-01-29T07:21:07.661Z,87.16
2023-01-29T07:22:08.924Z,88.05
2023-01-29T07:23:11.708Z,87.52
2023-01-29T07:24:12.990Z,87.76
2023-01-29T07:25:14.239Z,87.31
2023-01-29T07:26:15.736Z,87.29
2023-01-29T07:27:17.030Z,87.79
2023-01-29T07:28:18.620Z,87.06
2023-01-29T07:29:19.868Z,87.05
2023-01-29T07:30:21.345Z,86.31
2023-01-29T07:31:22.743Z,86.90
2023-01-29T07:32:24.080Z,86.71
2023-01-29T07:33:25.692Z,86.82
2023-01-29T07:34:26.957Z,86.92
2023-01-29T07:35:28.179Z,85.78
2023-01-29T07:36:29.481Z,86.61
2023-01-29T07:37:30.719Z,86.24
2023-01-29T07:38:31.963Z,86.42
2023-01-29T07:39:33.275Z,86.70
2023-01-29T07:40:34.594Z,86.86
2023-01-29T07:41:35.814Z,86.27
2023-01-29T07:42:45.101Z,86.67
2023-01-29T07:43:46.315Z,86.54
2023-01-29T07:44:47.573Z,86.27
2023-01-29T07:45:48.983Z,87.06
2023-01-29T07:46:50.265Z,86.12
2023-01-29T07:47:55.250Z,86.41
2023-01-29T07:48:59.483Z,86.17
2023-01-29T07:50:00.824Z,85.38
2023-01-29T07:51:02.054Z,85.75
2023-01-29T07:52:03.487Z,85.19
2023-01-29T07:53:04.992Z,85.63
2023-01-29T07:54:06.216Z,85.03
2023-01-29T07:55:07.635Z,84.93
2023-01-29T07:56:08.887Z,84.92
2023-01-29T07:57:10.127Z,85.88
2023-01-29T07:58:11.446Z,84.81
2023-01-29T07:59:13.098Z,85.23
2023-01-29T08:00:14.872Z,85.72
2023-01-29T08:01:16.407Z,85.34
2023-01-29T08:02:17.906Z,85.45
2023-01-29T08:03:19.492Z,84.98
2023-01-29T08:04:20.863Z,85.30
2023-01-29T08:05:22.057Z,85.53
2023-01-29T08:06:23.230Z,85.73
2023-01-29T08:07:24.488Z,85.01
2023-01-29T08:08:25.961Z,85.38
2023-01-29T08:09:27.161Z,85.49
2023-01-29T08:10:28.537Z,85.18
2023-01-29T08:11:29.805Z,85.78
2023-01-29T08:12:31.032Z,85.62
2023-01-29T08:13:32.563Z,85.93
2023-01-29T08:14:33.807Z,85.83
2023-01-29T08:15:37.189Z,86.15
2023-01-29T08:16:40.257Z,85.45
2023-01-29T08:19:02.890Z,85.35
2023-01-29T08:20:07.459Z,85.04
2023-01-29T08:21:09.436Z,84.72
2023-01-29T08:22:10.672Z,85.27
2023-01-29T08:23:13.785Z,83.63
2023-01-29T08:24:15.095Z,84.60
2023-01-29T08:25:16.331Z,85.07
2023-01-29T08:26:17.555Z,85.16
2023-01-29T08:27:18.839Z,84.61
2023-01-29T08:28:20.258Z,83.03
2023-01-29T08:29:21.572Z,83.19
2023-01-29T08:30:22.847Z,84.20
2023-01-29T08:31:24.215Z,84.66
2023-01-29T08:32:25.444Z,85.00
2023-01-29T08:34:48.071Z,84.79
2023-01-29T08:35:50.143Z,84.37
2023-01-29T08:36:51.439Z,83.46
2023-01-29T08:37:56.457Z,84.18
2023-01-29T08:38:57.742Z,82.99
2023-01-29T08:39:58.936Z,83.63
2023-01-29T08:41:00.181Z,84.06
2023-01-29T08:42:01.429Z,84.17
2023-01-29T08:43:06.037Z,83.67
2023-01-29T08:44:08.248Z,83.21
2023-01-29T08:45:09.745Z,83.25
2023-01-29T08:46:11.044Z,84.54
2023-01-29T08:47:12.322Z,84.73
2023-01-29T08:48:13.526Z,84.26
2023-01-29T08:49:14.804Z,84.35
2023-01-29T08:50:17.219Z,84.10
2023-01-29T08:51:18.838Z,84.26
2023-01-29T08:52:20.070Z,83.18
2023-01-29T08:53:21.285Z,82.83
2023-01-29T08:54:23.243Z,82.30
2023-01-29T08:55:25.059Z,82.88
2023-01-29T08:56:26.296Z,82.90
2023-01-29T08:57:27.550Z,82.85
2023-01-29T08:58:28.790Z,83.70
2023-01-29T08:59:29.988Z,83.17
2023-01-29T09:00:31.811Z,82.77
2023-01-29T09:01:33.073Z,82.78
2023-01-29T09:02:34.551Z,81.29
2023-01-29T09:03:35.879Z,80.85
2023-01-29T09:04:37.117Z,81.74
2023-01-29T09:05:39.133Z,80.79
2023-01-29T09:06:40.419Z,81.06
2023-01-29T09:07:41.663Z,81.34
2023-01-29T09:08:42.855Z,80.66
2023-01-29T09:09:44.169Z,81.11
2023-01-29T09:10:49.886Z,81.87
2023-01-29T09:11:53.893Z,81.83
2023-01-29T09:12:55.146Z,80.66
2023-01-29T09:13:56.384Z,81.20
2023-01-29T09:14:57.638Z,80.75
2023-01-29T09:15:59.711Z,80.59
2023-01-29T09:17:00.960Z,80.12
2023-01-29T09:18:02.890Z,79.18
2023-01-29T09:19:04.149Z,79.71
2023-01-29T09:20:05.630Z,79.67
2023-01-29T09:21:06.818Z,79.44
2023-01-29T09:22:09.046Z,80.73
2023-01-29T09:23:11.615Z,80.46
2023-01-29T09:24:12.904Z,80.67
2023-01-29T09:25:14.628Z,80.78
2023-01-29T09:26:16.327Z,79.63
2023-01-29T09:27:17.521Z,79.08
2023-01-29T09:28:18.794Z,79.24
2023-01-29T09:29:20.146Z,79.34
2023-01-29T09:30:21.426Z,78.81
2023-01-29T09:31:22.956Z,78.75
2023-01-29T09:32:52.081Z,78.34
2023-01-29T09:33:45.692Z,79.41
2023-01-29T09:34:46.940Z,78.02
2023-01-29T09:35:48.229Z,78.50
2023-01-29T09:36:49.536Z,79.32
2023-01-29T09:37:51.117Z,79.60
2023-01-29T09:38:52.350Z,79.94
2023-01-29T09:39:53.597Z,79.12
2023-01-29T09:41:00.132Z,78.85
2023-01-29T09:42:21.397Z,77.61
2023-01-29T09:43:25.972Z,77.31
2023-01-29T09:44:30.011Z,78.16
2023-01-29T09:45:31.340Z,79.72
2023-01-29T09:46:39.910Z,79.47
2023-01-29T09:47:41.332Z,79.11
2023-01-29T09:48:44.060Z,78.05
2023-01-29T09:49:47.263Z,77.80
2023-01-29T09:50:51.339Z,76.64
2023-01-29T09:51:58.809Z,76.89
2023-01-29T09:53:20.336Z,77.13
2023-01-29T09:54:24.607Z,77.15
2023-01-29T09:55:31.371Z,76.53
2023-01-29T09:56:32.644Z,75.79
2023-01-29T09:57:48.170Z,76.29
2023-01-29T09:58:49.496Z,76.77
2023-01-29T09:59:50.793Z,76.75
2023-01-29T10:01:00.284Z,76.21
2023-01-29T10:02:19.270Z,75.84
2023-01-29T10:03:20.589Z,75.32
2023-01-29T10:04:37.382Z,74.58
2023-01-29T10:05:44.426Z,74.00
2023-01-29T10:06:55.005Z,73.49
2023-01-29T10:08:06.558Z,74.63
2023-01-29T10:09:07.773Z,74.33
2023-01-29T10:10:23.484Z,73.01
2023-01-29T10:11:43.743Z,72.60
2023-01-29T10:13:00.264Z,72.19
2023-01-29T10:14:01.467Z,72.18
2023-01-29T10:15:02.700Z,72.64
2023-01-29T10:16:22.478Z,71.64
2023-01-29T10:17:38.823Z,70.97
2023-01-29T10:18:43.128Z,71.06
2023-01-29T10:19:57.388Z,69.75
2023-01-29T10:21:04.754Z,69.73
2023-01-29T10:22:17.350Z,70.09
2023-01-29T10:23:21.592Z,69.54
2023-01-29T10:24:31.982Z,70.82
2023-01-29T10:25:36.640Z,70.38
2023-01-29T10:26:38.140Z,69.47
2023-01-29T10:27:41.013Z,70.30
2023-01-29T10:28:43.727Z,70.95
2023-01-29T10:29:47.195Z,70.61
2023-01-29T10:30:50.123Z,71.29
2023-01-29T10:31:58.708Z,71.13
2023-01-29T10:33:03.764Z,71.30
2023-01-29T10:34:10.547Z,72.20
2023-01-29T10:35:22.840Z,71.04
2023-01-29T10:36:32.051Z,70.12
2023-01-29T10:37:40.476Z,70.13
2023-01-29T10:38:41.788Z,69.79
2023-01-29T10:39:43.065Z,70.88
2023-01-29T10:40:49.335Z,70.97
2023-01-29T10:42:09.383Z,70.02
2023-01-29T10:43:21.916Z,70.31
2023-01-29T10:44:31.599Z,70.70
2023-01-29T10:46:05.526Z,70.84
2023-01-29T10:47:25.614Z,70.31
2023-01-29T10:48:41.992Z,70.83
2023-01-29T10:49:54.107Z,70.46
2023-01-29T10:51:01.685Z,70.03
2023-01-29T10:52:02.916Z,70.48
2023-01-29T10:53:23.284Z,69.77
2023-01-29T10:54:36.870Z,69.48
2023-01-29T10:55:56.548Z,70.51
2023-01-29T10:57:18.167Z,70.39
2023-01-29T10:58:27.147Z,70.37
2023-01-29T10:59:37.118Z,68.89
2023-01-29T11:00:39.836Z,68.87
2023-01-29T11:01:41.172Z,68.74
2023-01-29T11:02:46.015Z,67.85
2023-01-29T11:03:55.857Z,68.54
2023-01-29T11:04:57.131Z,68.66
2023-01-29T11:06:10.325Z,69.71
2023-01-29T11:07:12.679Z,68.88
2023-01-29T11:08:16.191Z,69.12
2023-01-29T11:09:28.190Z,69.17
2023-01-29T11:10:32.358Z,68.65
2023-01-29T11:11:33.626Z,69.88
2023-01-29T11:12:36.040Z,69.58
2023-01-29T11:13:40.393Z,69.65
2023-01-29T11:14:47.561Z,69.96
2023-01-29T11:15:51.554Z,70.74
2023-01-29T11:16:52.840Z,70.71
2023-01-29T11:18:07.572Z,70.74
2023-01-29T11:19:08.995Z,70.86
2023-01-29T11:20:26.220Z,71.08
2023-01-29T11:21:28.582Z,70.82
2023-01-29T11:22:30.144Z,71.22
2023-01-29T11:23:32.534Z,71.75
2023-01-29T11:24:33.746Z,71.31
2023-01-29T11:25:36.003Z,71.53
2023-01-29T11:26:39.200Z,70.73
2023-01-29T11:27:44.734Z,70.12
2023-01-29T11:28:50.166Z,70.60
2023-01-29T11:29:52.481Z,70.65
2023-01-29T11:30:55.298Z,70.62
2023-01-29T11:32:01.032Z,71.51
2023-01-29T11:33:07.267Z,72.25
2023-01-29T11:34:21.395Z,71.61
2023-01-29T11:35:23.988Z,70.93
2023-01-29T11:36:31.412Z,71.33
2023-01-29T11:37:39.790Z,71.30
2023-01-29T11:38:41.152Z,71.43
2023-01-29T11:39:46.066Z,71.88
2023-01-29T11:40:47.367Z,71.00
2023-01-29T11:41:48.635Z,70.01
2023-01-29T11:42:50.418Z,70.54
2023-01-29T11:43:51.733Z,69.97
2023-01-29T11:44:52.923Z,70.31
2023-01-29T11:45:55.925Z,70.61
2023-01-29T11:47:08.153Z,71.39
2023-01-29T11:48:14.933Z,71.42
2023-01-29T11:49:22.351Z,71.34
2023-01-29T11:50:25.509Z,70.98
2023-01-29T11:51:28.518Z,71.24
2023-01-29T11:52:37.641Z,71.04
2023-01-29T11:53:43.801Z,70.63
2023-01-29T11:54:48.148Z,70.15
2023-01-29T11:55:51.051Z,71.19
2023-01-29T11:56:52.578Z,70.79
2023-01-29T11:58:03.435Z,70.77
2023-01-29T11:59:04.818Z,70.71
2023-01-29T12:00:07.654Z,69.73
2023-01-29T12:01:11.999Z,70.07
2023-01-29T12:02:45.900Z,70.88
2023-01-29T12:03:51.525Z,70.96
2023-01-29T12:04:54.803Z,71.46
2023-01-29T12:06:00.920Z,71.57
2023-01-29T12:07:02.237Z,71.27
2023-01-29T12:08:03.571Z,71.88
2023-01-29T12:09:09.731Z,72.01
2023-01-29T12:10:31.098Z,72.17
2023-01-29T12:11:33.495Z,71.41
2023-01-29T12:12:57.527Z,71.73
2023-01-29T12:14:00.037Z,71.47
2023-01-29T12:15:06.498Z,71.94
2023-01-29T12:16:26.005Z,71.44
2023-01-29T12:17:30.664Z,71.93
2023-01-29T12:18:35.047Z,71.15
2023-01-29T12:19:40.407Z,72.04
2023-01-29T12:21:04.763Z,71.94
2023-01-29T12:22:05.962Z,72.09
2023-01-29T12:23:12.947Z,71.06
2023-01-29T12:24:25.022Z,71.50
2023-01-29T12:25:41.132Z,71.71
2023-01-29T12:26:57.861Z,72.23
2023-01-29T12:28:01.832Z,71.56
2023-01-29T12:29:16.654Z,69.44
2023-01-29T12:30:18.328Z,69.99
2023-01-29T12:31:29.185Z,70.67
2023-01-29T12:32:30.411Z,71.12
2023-01-29T12:33:52.869Z,71.41
2023-01-29T12:35:06.954Z,71.09
2023-01-29T12:36:19.063Z,71.67
2023-01-29T12:37:36.917Z,71.90
2023-01-29T12:38:38.173Z,71.25
2023-01-29T12:39:39.423Z,71.78
2023-01-29T12:40:43.393Z,71.03
2023-01-29T12:41:47.397Z,70.94
2023-01-29T12:42:52.024Z,71.11
2023-01-29T12:43:59.499Z,71.37
2023-01-29T12:45:02.992Z,70.28
2023-01-29T12:46:06.839Z,70.39
2023-01-29T12:47:12.193Z,70.64
2023-01-29T12:48:20.798Z,70.30
2023-01-29T12:49:23.478Z,69.71
2023-01-29T12:50:28.998Z,70.73
2023-01-29T12:51:38.643Z,71.50
2023-01-29T12:52:42.719Z,70.78
2023-01-29T12:53:54.891Z,71.45
2023-01-29T12:54:59.611Z,70.96
2023-01-29T12:56:26.977Z,70.08
2023-01-29T12:58:03.788Z,70.58
2023-01-29T12:59:10.369Z,70.53
2023-01-29T13:00:15.225Z,70.15
2023-01-29T13:01:22.614Z,70.51
2023-01-29T13:02:36.799Z,71.11
2023-01-29T13:03:40.895Z,70.75
2023-01-29T13:04:45.364Z,69.97
2023-01-29T13:06:05.344Z,70.33
2023-01-29T13:07:12.257Z,70.26
2023-01-29T13:08:19.960Z,70.42
2023-01-29T13:09:25.552Z,70.12
2023-01-29T13:10:32.071Z,69.56
2023-01-29T13:11:50.095Z,69.95
2023-01-29T13:12:55.171Z,70.13
2023-01-29T13:13:59.675Z,69.63
2023-01-29T13:15:05.123Z,69.29
2023-01-29T13:16:09.872Z,69.74
2023-01-29T13:17:19.499Z,70.08
2023-01-29T13:18:20.667Z,69.51
2023-01-29T13:19:26.753Z,70.47
2023-01-29T13:20:30.466Z,70.14
2023-01-29T13:21:36.993Z,70.05
2023-01-29T13:22:39.571Z,70.17
2023-01-29T13:23:43.889Z,69.73
2023-01-29T13:24:55.475Z,70.29
2023-01-29T13:26:05.541Z,70.11
2023-01-29T13:27:07.042Z,70.61
2023-01-29T13:28:16.391Z,70.72
2023-01-29T13:29:25.021Z,70.54
2023-01-29T13:30:28.294Z,70.45
2023-01-29T13:31:39.201Z,70.38
2023-01-29T13:32:41.185Z,70.76
2023-01-29T13:33:43.244Z,70.58
2023-01-29T13:34:46.351Z,70.65
2023-01-29T13:35:48.882Z,70.30
2023-01-29T13:36:55.119Z,70.92
2023-01-29T13:37:56.410Z,70.37
2023-01-29T13:39:08.157Z,69.83
2023-01-29T13:40:19.345Z,69.57
2023-01-29T13:41:20.581Z,70.31
2023-01-29T13:42:24.079Z,69.83
2023-01-29T13:43:25.914Z,70.41
2023-01-29T13:44:29.369Z,70.02
2023-01-29T13:45:33.674Z,70.42
2023-01-29T13:46:39.776Z,69.38
2023-01-29T13:47:41.013Z,69.99
2023-01-29T13:48:44.370Z,68.26
2023-01-29T13:49:47.594Z,69.30
2023-01-29T13:50:50.364Z,69.63
2023-01-29T13:51:51.768Z,69.86
2023-01-29T13:52:54.445Z,69.86
2023-01-29T13:53:58.301Z,68.85
2023-01-29T13:55:02.347Z,68.46
2023-01-29T13:56:22.119Z,68.64
2023-01-29T13:57:55.701Z,69.79